.
WxDataArchive / Data Records for 2006-06-04
2006-06-03 June 2006 2006-06-05

Data Records for Sunday, 04 June 2006

Time	Temp	Chill	HIndex	Humid	Dewpt	 Wind 	HiWind	WindDir	Rain 	Barom 
-----	----	-----	------	-----	-----	------	------	-------	-----	----- 
00:00	59.8	59.8	59.8	73	51.1	0	0	---	0.00	29.905 
00:05	59.6	59.6	59.6	73	50.9	0	0	---	0.00	29.905 
00:10	59.5	59.5	59.5	73	50.8	0	0	---	0.00	29.905 
00:15	59.3	59.3	59.3	73	50.6	0	0	---	0.00	29.907 
00:20	59.3	59.3	59.3	74	51.0	0	0	---	0.00	29.907 
00:25	59.2	59.2	59.2	74	50.9	0	0	---	0.00	29.907 
00:30	59.2	59.2	59.2	73	50.5	0	0	---	0.00	29.905 
00:35	59.2	59.2	59.2	74	50.9	0	1	135	0.00	29.905 
00:40	59.2	59.2	59.2	74	50.9	0	0	---	0.00	29.905 
00:45	59.0	59.0	59.0	73	50.4	0	0	---	0.00	29.904 
00:50	58.9	58.9	58.9	74	50.6	0	0	---	0.00	29.904 
00:55	58.7	58.7	58.7	74	50.4	0	0	---	0.00	29.904 
01:00	58.6	58.6	58.6	75	50.7	0	0	---	0.00	29.903 
01:05	58.4	58.4	58.4	75	50.5	0	0	---	0.00	29.903 
01:10	58.3	58.3	58.3	76	50.8	0	0	---	0.00	29.903 
01:15	58.3	58.3	58.3	76	50.8	0	0	---	0.00	29.902 
01:20	58.3	58.3	58.3	76	50.8	0	0	---	0.00	29.902 
01:25	58.4	58.4	58.4	76	50.9	0	0	---	0.00	29.902 
01:30	58.3	58.3	58.3	76	50.8	0	0	---	0.00	29.902 
01:35	58.1	58.1	58.1	77	50.9	0	0	---	0.00	29.902 
01:40	58.0	58.0	58.0	77	50.8	0	0	---	0.00	29.902 
01:45	57.8	57.8	57.8	77	50.6	0	0	---	0.00	29.901 
01:50	57.8	57.8	57.8	77	50.6	0	0	---	0.00	29.901 
01:55	57.6	57.6	57.6	77	50.4	0	0	---	0.00	29.901 
02:00	57.8	57.8	57.8	78	51.0	0	0	---	0.00	29.901 
02:05	57.6	57.6	57.6	78	50.8	0	1	135	0.00	29.901 
02:10	57.6	57.6	57.6	78	50.8	0	0	---	0.00	29.901 
02:15	57.5	57.5	57.5	78	50.7	0	0	---	0.00	29.901 
02:20	57.2	57.2	57.2	79	50.7	0	0	---	0.00	29.901 
02:25	57.0	57.0	57.0	79	50.5	0	0	---	0.00	29.901 
02:30	56.9	56.9	56.9	80	50.8	0	0	---	0.00	29.900 
02:35	56.7	56.7	56.7	81	50.9	0	1	135	0.00	29.900 
02:40	56.5	56.5	56.5	81	50.7	0	0	---	0.00	29.900 
02:45	56.3	56.3	56.3	81	50.5	0	0	---	0.00	29.894 
02:50	56.2	56.2	56.2	82	50.8	0	0	---	0.00	29.894 
02:55	56.0	56.0	56.0	83	50.9	0	0	---	0.00	29.894 
03:00	55.9	55.9	55.9	84	51.1	0	0	---	0.00	29.898 
03:05	55.9	55.9	55.9	84	51.1	0	0	---	0.00	29.898 
03:10	55.7	55.7	55.7	84	50.9	0	0	---	0.00	29.898 
03:15	55.7	55.7	55.7	85	51.3	0	0	---	0.00	29.899 
03:20	55.6	55.6	55.6	85	51.2	0	0	---	0.00	29.899 
03:25	55.4	55.4	55.4	86	51.3	0	0	---	0.00	29.899 
03:30	55.4	55.4	55.4	86	51.3	0	0	---	0.00	29.898 
03:35	55.3	55.3	55.3	86	51.2	0	0	---	0.00	29.898 
03:40	55.1	55.1	55.1	87	51.3	0	0	---	0.00	29.898 
03:45	55.0	55.0	55.0	87	51.2	0	0	---	0.00	29.901 
03:50	54.8	54.8	54.8	87	51.0	0	0	---	0.00	29.901 
03:55	54.7	54.7	54.7	87	50.9	0	0	---	0.00	29.901 
04:00	54.5	54.5	54.5	88	51.0	0	0	---	0.00	29.904 
04:05	54.4	54.4	54.4	88	50.9	0	0	---	0.00	29.904 
04:10	54.4	54.4	54.4	88	50.9	0	0	---	0.00	29.904 
04:15	54.2	54.2	54.2	88	50.7	0	0	---	0.00	29.908 
04:20	54.1	54.1	54.1	89	50.9	0	0	---	0.00	29.908 
04:25	53.9	53.9	53.9	89	50.7	0	0	---	0.00	29.908 
04:30	53.9	53.9	53.9	89	50.7	0	0	---	0.00	29.908 
04:35	53.9	53.9	53.9	90	51.0	0	0	---	0.00	29.908 
04:40	53.8	53.8	53.8	90	50.9	0	0	---	0.00	29.908 
04:45	53.8	53.8	53.8	91	51.2	0	0	---	0.00	29.909 
04:50	53.8	53.8	53.8	91	51.2	0	0	---	0.00	29.909 
04:55	53.8	53.8	53.8	91	51.2	0	0	---	0.00	29.909 
05:00	53.6	53.6	53.6	91	51.0	0	0	---	0.00	29.911 
05:05	53.6	53.6	53.6	91	51.0	0	0	---	0.00	29.911 
05:10	53.6	53.6	53.6	91	51.0	0	0	---	0.00	29.911 
05:15	53.6	53.6	53.6	91	51.0	0	0	---	0.00	29.917 
05:20	53.6	53.6	53.6	91	51.0	0	0	---	0.00	29.917 
05:25	53.6	53.6	53.6	92	51.3	0	1	135	0.00	29.917 
05:30	53.9	53.9	53.9	91	51.3	0	2	135	0.00	29.922 
05:35	54.1	54.1	54.1	90	51.2	0	2	135	0.00	29.922 
05:40	54.2	54.2	54.2	89	51.0	0	1	135	0.00	29.922 
05:45	54.5	54.5	54.5	89	51.3	0	1	135	0.00	29.924 
05:50	54.7	54.7	54.7	87	50.9	0	2	135	0.00	29.924 
05:55	54.8	54.8	54.8	87	51.0	0	1	135	0.00	29.924 
06:00	55.1	55.1	55.1	85	50.7	0	2	135	0.00	29.926 
06:05	55.3	55.3	55.3	85	50.9	0	2	112	0.00	29.926 
06:10	55.3	55.3	55.3	84	50.5	0	3	112	0.00	29.926 
06:15	55.4	55.4	55.4	84	50.6	1	3	112	0.00	29.936 
06:20	55.4	55.4	55.4	83	50.3	0	4	112	0.00	29.936 
06:25	55.4	55.4	55.4	83	50.3	0	2	112	0.00	29.936 
06:30	55.4	55.4	55.4	83	50.3	0	2	112	0.00	29.939 
06:35	55.3	55.3	55.3	83	50.2	0	1	112	0.00	29.939 
06:40	55.3	55.3	55.3	83	50.2	0	2	90	0.00	29.939 
06:45	55.3	55.3	55.3	83	50.2	0	2	90	0.00	29.942 
06:50	55.1	55.1	55.1	83	50.0	0	1	90	0.00	29.942 
06:55	55.1	55.1	55.1	83	50.0	0	1	90	0.00	29.942 
07:00	55.0	55.0	55.0	83	49.9	0	0	---	0.00	29.948 
07:05	54.8	54.8	54.8	84	50.1	0	0	---	0.00	29.948 
07:10	54.7	54.7	54.7	84	50.0	0	1	90	0.00	29.948 
07:15	54.7	54.7	54.7	84	50.0	0	2	90	0.00	29.952 
07:20	54.8	54.8	54.8	84	50.1	0	0	---	0.00	29.952 
07:25	55.0	55.0	55.0	84	50.3	0	0	---	0.00	29.952 
07:30	55.3	55.3	55.3	84	50.5	0	0	---	0.00	29.956 
07:35	56.0	56.0	56.0	84	51.2	0	1	90	0.00	29.956 
07:40	56.9	56.9	56.9	82	51.5	0	1	90	0.00	29.956 
07:45	57.6	57.6	57.6	80	51.5	0	2	90	0.00	29.953 
07:50	58.4	58.4	58.4	77	51.2	0	2	112	0.00	29.953 
07:55	59.0	59.0	59.0	76	51.4	0	1	112	0.00	29.953 
08:00	59.6	59.6	59.6	74	51.3	0	2	112	0.00	29.953 
08:05	60.2	60.2	60.2	73	51.5	1	3	112	0.00	29.953 
08:10	60.5	60.5	60.5	70	50.7	0	2	112	0.00	29.953 
08:15	60.1	60.1	60.1	71	50.7	0	3	90	0.00	29.960 
08:20	59.8	59.8	59.8	72	50.8	0	2	112	0.00	29.960 
08:25	59.5	59.5	59.5	73	50.8	0	1	158	0.00	29.960 
08:30	59.5	59.5	59.5	73	50.8	0	2	180	0.00	29.959 
08:35	59.6	59.6	59.6	72	50.6	0	2	135	0.00	29.959 
08:40	59.9	59.9	59.9	73	51.2	0	1	135	0.00	29.959 
08:45	59.8	59.8	59.8	71	50.4	0	1	135	0.00	29.968 
08:50	59.8	59.8	59.8	73	51.1	1	3	112	0.00	29.968 
08:55	59.9	59.9	59.9	72	50.8	1	3	112	0.00	29.968 
09:00	60.1	60.1	60.1	73	51.4	1	3	112	0.00	29.973 
09:05	60.4	60.4	60.4	72	51.3	0	2	112	0.00	29.973 
09:10	60.5	60.5	60.5	72	51.4	0	2	112	0.00	29.973 
09:15	60.7	60.7	60.7	69	50.5	1	5	112	0.00	29.974 
09:20	61.2	61.2	61.2	72	52.1	1	3	90	0.00	29.974 
09:25	62.0	62.0	62.0	69	51.7	1	3	90	0.00	29.974 
09:30	62.1	62.1	62.1	69	51.8	1	3	135	0.00	29.975 
09:35	62.0	62.0	62.0	69	51.7	2	5	112	0.00	29.975 
09:40	62.3	62.3	62.3	68	51.6	1	4	135	0.00	29.975 
09:45	62.7	62.7	62.7	66	51.2	2	6	112	0.00	29.974 
09:50	63.5	63.5	63.5	66	51.9	2	4	112	0.00	29.974 
09:55	64.2	64.2	64.2	66	52.6	1	4	112	0.00	29.974 
10:00	64.8	64.8	64.8	62	51.5	1	5	135	0.00	29.970 
10:05	65.0	65.0	65.0	63	52.1	1	6	68	0.00	29.970 
10:10	65.0	65.0	65.0	62	51.7	1	3	45	0.00	29.970 
10:15	65.6	65.6	65.6	63	52.7	2	5	90	0.00	29.974 
10:20	66.1	66.1	66.1	58	50.9	2	10	90	0.00	29.974 
10:25	66.6	66.6	66.6	58	51.4	1	3	135	0.00	29.974 
10:30	66.4	66.4	66.4	58	51.2	1	4	135	0.00	29.973 
10:35	66.3	66.3	66.3	58	51.1	1	4	112	0.00	29.973 
10:40	66.3	66.3	66.3	63	53.3	1	3	68	0.00	29.973 
10:45	66.4	66.4	66.4	56	50.2	1	6	68	0.00	29.973 
10:50	66.3	66.3	66.3	58	51.1	0	2	112	0.00	29.973 
10:55	66.0	66.0	66.0	58	50.8	1	2	338	0.00	29.973 
11:00	65.8	65.8	65.8	59	51.1	1	5	292	0.00	29.972 
11:05	65.8	65.8	65.8	60	51.5	2	5	112	0.00	29.972 
11:10	65.8	65.8	65.8	60	51.5	1	3	112	0.00	29.972 
11:15	66.1	66.1	66.1	58	50.9	0	4	112	0.00	29.972 
11:20	66.3	66.3	66.3	55	49.6	1	7	112	0.00	29.972 
11:25	66.4	66.4	66.4	57	50.7	1	3	22	0.00	29.972 
11:30	67.1	67.1	67.1	58	51.8	0	3	112	0.00	29.970 
11:35	68.6	68.6	68.6	51	49.7	2	5	90	0.00	29.970 
11:40	69.1	69.1	69.1	52	50.7	3	6	90	0.00	29.970 
11:45	69.9	69.9	69.9	55	53.0	1	4	22	0.00	29.962 
11:50	70.6	70.6	70.6	58	55.1	2	5	112	0.00	29.962 
11:55	70.3	70.3	70.3	51	51.3	4	9	90	0.00	29.962 
12:00	69.9	69.9	69.9	54	52.5	2	7	90	0.00	29.963 
12:05	70.3	70.3	70.3	54	52.9	1	4	90	0.00	29.963 
12:10	70.3	70.3	70.3	53	52.3	1	6	248	0.00	29.963 
12:15	70.6	70.6	70.6	53	52.6	2	4	45	0.00	29.961 
12:20	71.1	71.1	71.1	47	49.8	2	7	90	0.00	29.961 
12:25	71.3	71.3	71.3	51	52.2	3	6	112	0.00	29.961 
12:30	71.5	71.5	71.5	47	50.2	2	5	90	0.00	29.966 
12:35	71.3	71.3	71.3	49	51.1	1	3	68	0.00	29.966 
12:40	71.8	71.8	71.8	49	51.6	0	2	225	0.00	29.966 
12:45	72.3	72.3	72.3	50	52.6	2	4	90	0.00	29.963 
12:50	72.1	72.1	72.1	48	51.3	1	4	90	0.00	29.963 
12:55	71.8	71.8	71.8	46	49.9	2	8	68	0.00	29.963 
13:00	71.6	71.6	71.6	46	49.7	2	9	68	0.00	29.965 
13:05	71.3	71.3	71.3	51	52.2	2	5	90	0.00	29.965 
13:10	70.8	70.8	70.8	47	49.6	3	6	90	0.00	29.965 
13:15	70.6	70.6	70.6	46	48.8	3	6	112	0.00	29.964 
13:20	71.1	71.1	71.1	47	49.8	2	6	112	0.00	29.964 
13:25	71.5	71.5	71.5	46	49.6	2	6	112	0.00	29.964 
13:30	71.3	71.3	71.3	46	49.4	3	6	112	0.00	29.957 
13:35	71.3	71.3	71.3	48	50.6	2	6	112	0.00	29.957 
13:40	71.5	71.5	71.5	50	51.9	2	6	90	0.00	29.957 
13:45	71.8	71.8	71.8	47	50.5	2	7	90	0.00	29.954 
13:50	72.0	72.0	72.0	43	48.3	4	9	112	0.00	29.954 
13:55	72.1	72.1	72.1	42	47.7	3	9	90	0.00	29.954 
14:00	72.5	72.5	72.5	44	49.3	2	6	90	0.00	29.950 
14:05	73.0	73.0	73.0	47	51.6	1	4	90	0.00	29.950 
14:10	73.3	73.3	73.3	42	48.8	3	12	90	0.00	29.950 
14:15	73.3	73.3	73.3	47	51.8	2	6	90	0.00	29.952 
14:20	73.5	73.5	73.5	43	49.6	2	6	90	0.00	29.952 
14:25	72.8	72.8	72.8	44	49.6	2	5	90	0.00	29.952 
14:30	72.0	72.0	72.0	46	50.1	1	3	90	0.00	29.955 
14:35	71.5	71.5	71.5	44	48.4	0	1	90	0.00	29.955 
14:40	71.1	71.1	71.1	45	48.7	0	2	90	0.00	29.955 
14:45	71.3	71.3	71.3	49	51.1	0	1	90	0.00	29.948 
14:50	71.5	71.5	71.5	48	50.8	0	2	90	0.00	29.948 
14:55	71.8	71.8	71.8	46	49.9	1	4	90	0.00	29.948 
15:00	72.0	72.0	72.0	47	50.7	1	3	45	0.00	29.943 
15:05	72.3	72.3	72.3	48	51.5	0	4	225	0.00	29.943 
15:10	72.5	72.5	72.5	44	49.3	0	2	248	0.00	29.943 
15:15	72.8	72.8	72.8	44	49.6	1	4	22	0.00	29.942 
15:20	73.7	73.7	73.7	40	47.9	2	5	68	0.00	29.942 
15:25	74.4	74.4	74.4	40	48.5	2	4	248	0.00	29.942 
15:30	74.7	74.7	74.7	38	47.4	1	3	270	0.00	29.937 
15:35	74.6	74.6	74.6	39	48.0	1	2	315	0.00	29.937 
15:40	73.9	73.9	73.9	41	48.7	1	3	45	0.00	29.937 
15:45	73.9	73.9	73.9	42	49.3	1	3	270	0.00	29.934 
15:50	74.4	74.4	74.4	40	48.5	1	2	292	0.00	29.934 
15:55	74.9	74.9	74.9	37	46.9	1	3	22	0.00	29.934 
16:00	75.4	75.4	77.7	43	51.3	1	3	22	0.00	29.924 
16:05	75.8	75.8	77.7	40	49.7	1	4	0	0.00	29.924 
16:10	75.8	75.8	77.6	37	47.7	2	6	338	0.00	29.924 
16:15	76.3	76.3	77.6	34	45.8	1	5	135	0.00	29.925 
16:20	76.1	76.1	77.9	40	50.0	1	6	90	0.00	29.925 
16:25	76.5	76.5	77.9	37	48.3	1	4	90	0.00	29.925 
16:30	76.7	76.7	78.1	39	49.9	1	6	270	0.00	29.922 
16:35	77.0	77.0	77.9	34	46.5	1	5	292	0.00	29.922 
16:40	76.8	76.8	77.9	36	47.8	2	6	90	0.00	29.922 
16:45	76.3	76.3	77.7	36	47.4	1	5	22	0.00	29.919 
16:50	76.1	76.1	77.6	35	46.4	1	6	270	0.00	29.919 
16:55	75.8	75.8	77.3	31	43.0	1	6	292	0.00	29.919 
17:00	74.6	74.6	74.6	35	45.1	1	5	112	0.00	29.915 
17:05	74.7	74.7	74.7	35	45.2	1	6	338	0.00	29.915 
17:10	75.4	75.4	77.4	35	45.8	1	3	270	0.00	29.915 
17:15	75.4	75.4	77.5	38	48.0	2	5	112	0.00	29.909 
17:20	74.6	74.6	74.6	39	48.0	1	3	90	0.00	29.909 
17:25	74.4	74.4	74.4	35	44.9	0	1	90	0.00	29.909 
17:30	74.4	74.4	74.4	36	45.7	0	4	112	0.00	29.911 
17:35	74.7	74.7	74.7	37	46.7	1	5	112	0.00	29.911 
17:40	75.1	75.1	77.3	35	45.6	2	6	112	0.00	29.911 
17:45	75.1	75.1	77.2	34	44.8	1	5	292	0.00	29.908 
17:50	75.1	75.1	77.3	35	45.6	1	5	45	0.00	29.908 
17:55	75.3	75.3	77.5	38	47.9	1	6	90	0.00	29.908 
18:00	74.9	74.9	74.9	35	45.4	1	3	45	0.00	29.907 
18:05	74.7	74.7	74.7	35	45.2	1	4	135	0.00	29.907 
18:10	74.9	74.9	74.9	36	46.1	1	4	45	0.00	29.907 
18:15	75.1	75.1	77.2	34	44.8	1	4	270	0.00	29.905 
18:20	74.7	74.7	74.7	32	42.9	1	4	22	0.00	29.905 
18:25	74.6	74.6	74.6	35	45.1	1	6	135	0.00	29.905 
18:30	74.7	74.7	74.7	35	45.2	0	3	135	0.00	29.899 
18:35	74.7	74.7	74.7	35	45.2	1	5	45	0.00	29.899 
18:40	74.6	74.6	74.6	33	43.6	0	2	338	0.00	29.899 
18:45	74.7	74.7	74.7	35	45.2	0	1	338	0.00	29.902 
18:50	74.7	74.7	74.7	34	44.4	1	3	90	0.00	29.902 
18:55	74.7	74.7	74.7	35	45.2	1	4	90	0.00	29.902 
19:00	74.7	74.7	74.7	39	48.1	1	4	112	0.00	29.903 
19:05	74.6	74.6	74.6	36	45.9	1	3	45	0.00	29.903 
19:10	74.4	74.4	74.4	36	45.7	1	4	90	0.00	29.903 
19:15	74.0	74.0	74.0	37	46.1	1	3	90	0.00	29.901 
19:20	73.7	73.7	73.7	37	45.8	0	1	90	0.00	29.901 
19:25	73.2	73.2	73.2	39	46.7	1	6	158	0.00	29.901 
19:30	72.5	72.5	72.5	39	46.1	0	1	158	0.00	29.905 
19:35	72.0	72.0	72.0	39	45.7	0	0	---	0.00	29.905 
19:40	71.8	71.8	71.8	41	46.8	0	1	158	0.00	29.905 
19:45	71.8	71.8	71.8	39	45.5	0	1	158	0.00	29.907 
19:50	71.6	71.6	71.6	40	46.0	0	1	158	0.00	29.907 
19:55	71.3	71.3	71.3	40	45.7	0	0	---	0.00	29.907 
20:00	71.3	71.3	71.3	41	46.4	0	0	---	0.00	29.910 
20:05	71.3	71.3	71.3	42	47.0	0	0	---	0.00	29.910 
20:10	71.1	71.1	71.1	43	47.5	0	0	---	0.00	29.910 
20:15	70.9	70.9	70.9	43	47.3	0	0	---	0.00	29.910 
20:20	70.8	70.8	70.8	42	46.6	0	0	---	0.00	29.910 
20:25	70.6	70.6	70.6	43	47.0	0	0	---	0.00	29.910 
20:30	70.3	70.3	70.3	44	47.3	0	0	---	0.00	29.909 
20:35	69.9	69.9	69.9	45	47.6	0	0	---	0.00	29.909 
20:40	69.6	69.6	69.6	45	47.3	0	0	---	0.00	29.909 
20:45	69.1	69.1	69.1	46	47.4	0	0	---	0.00	29.912 
20:50	68.8	68.8	68.8	45	46.6	0	0	---	0.00	29.912 
20:55	68.4	68.4	68.4	45	46.2	0	0	---	0.00	29.912 
21:00	67.9	67.9	67.9	46	46.3	0	0	---	0.00	29.911 
21:05	67.6	67.6	67.6	48	47.2	0	0	---	0.00	29.911 
21:10	67.1	67.1	67.1	48	46.7	0	0	---	0.00	29.911 
21:15	66.6	66.6	66.6	50	47.4	0	0	---	0.00	29.911 
21:20	66.1	66.1	66.1	51	47.4	0	0	---	0.00	29.911 
21:25	65.6	65.6	65.6	53	48.0	0	0	---	0.00	29.911 
21:30	65.0	65.0	65.0	54	47.9	0	0	---	0.00	29.916 
21:35	64.5	64.5	64.5	54	47.5	0	0	---	0.00	29.916 
21:40	64.2	64.2	64.2	54	47.2	0	0	---	0.00	29.916 
21:45	63.7	63.7	63.7	57	48.2	0	0	---	0.00	29.923 
21:50	63.2	63.2	63.2	57	47.7	0	0	---	0.00	29.923 
21:55	62.9	62.9	62.9	57	47.4	0	0	---	0.00	29.923 
22:00	62.6	62.6	62.6	58	47.6	0	0	---	0.00	29.926 
22:05	62.3	62.3	62.3	60	48.2	0	0	---	0.00	29.926 
22:10	61.8	61.8	61.8	59	47.3	0	0	---	0.00	29.926 
22:15	61.5	61.5	61.5	58	46.6	0	0	---	0.00	29.929 
22:20	61.2	61.2	61.2	60	47.2	0	0	---	0.00	29.929 
22:25	60.9	60.9	60.9	60	46.9	0	0	---	0.00	29.929 
22:30	60.5	60.5	60.5	61	47.0	0	0	---	0.00	29.936 
22:35	60.4	60.4	60.4	61	46.9	0	0	---	0.00	29.936 
22:40	60.2	60.2	60.2	62	47.1	0	0	---	0.00	29.936 
22:45	59.9	59.9	59.9	61	46.4	0	0	---	0.00	29.942 
22:50	59.8	59.8	59.8	61	46.3	0	0	---	0.00	29.942 
22:55	59.5	59.5	59.5	62	46.5	0	0	---	0.00	29.942 
23:00	59.2	59.2	59.2	64	47.0	0	0	---	0.00	29.944 
23:05	59.0	59.0	59.0	66	47.7	0	0	---	0.00	29.944 
23:10	58.9	58.9	58.9	64	46.7	0	0	---	0.00	29.944 
23:15	58.6	58.6	58.6	65	46.9	0	0	---	0.00	29.944 
23:20	58.4	58.4	58.4	65	46.7	0	0	---	0.00	29.944 
23:25	58.1	58.1	58.1	65	46.4	0	0	---	0.00	29.944 
23:30	58.0	58.0	58.0	67	47.1	0	0	---	0.00	29.947 
23:35	57.6	57.6	57.6	68	47.1	0	0	---	0.00	29.947 
23:40	57.5	57.5	57.5	67	46.6	0	0	---	0.00	29.947 
23:45	57.3	57.3	57.3	68	46.8	0	0	---	0.00	29.950 
23:50	57.2	57.2	57.2	68	46.7	0	0	---	0.00	29.950 
23:55	57.0	57.0	57.0	69	46.9	0	0	---	0.00	29.950 

CoCoRaHS
IN-AL-39
A2 Web Hosting
Creative Commons License
GoDaddy
Look for:

loaded 2017-12-12 06:56:58 • last modified 2010-11-18 10:43:29
Privacy PolicyDisclaimer
• wx.awcolley.com is powered by PmWiki v.2002016 •
• all content (unless otherwise noted) © 2017 A W Colley